sensor_id;sensor_type;location;lat;lon;timestamp;P1;durP1;ratioP1;P2;durP2;ratioP2
41635;SDS011;27623;51.966;4.602;2022-11-20T00:01:06;21.60;;;8.40;;
41635;SDS011;27623;51.966;4.602;2022-11-20T00:03:33;14.27;;;7.47;;
41635;SDS011;27623;51.966;4.602;2022-11-20T00:06:00;15.10;;;7.47;;
41635;SDS011;27623;51.966;4.602;2022-11-20T00:08:26;15.07;;;7.40;;
41635;SDS011;27623;51.966;4.602;2022-11-20T00:10:51;15.48;;;8.30;;
41635;SDS011;27623;51.966;4.602;2022-11-20T00:13:17;14.18;;;7.22;;
41635;SDS011;27623;51.966;4.602;2022-11-20T00:15:42;14.18;;;7.55;;
41635;SDS011;27623;51.966;4.602;2022-11-20T00:18:08;16.42;;;8.32;;
41635;SDS011;27623;51.966;4.602;2022-11-20T00:20:34;17.20;;;8.43;;
41635;SDS011;27623;51.966;4.602;2022-11-20T00:22:59;15.00;;;6.95;;
41635;SDS011;27623;51.966;4.602;2022-11-20T00:25:27;16.58;;;8.63;;
41635;SDS011;27623;51.966;4.602;2022-11-20T00:27:53;17.95;;;8.60;;
41635;SDS011;27623;51.966;4.602;2022-11-20T00:30:19;14.77;;;8.18;;
41635;SDS011;27623;51.966;4.602;2022-11-20T00:32:45;14.25;;;7.55;;
41635;SDS011;27623;51.966;4.602;2022-11-20T00:35:10;14.20;;;7.32;;
41635;SDS011;27623;51.966;4.602;2022-11-20T00:37:36;16.75;;;8.05;;
41635;SDS011;27623;51.966;4.602;2022-11-20T00:40:01;15.15;;;7.75;;
41635;SDS011;27623;51.966;4.602;2022-11-20T00:42:27;13.75;;;7.47;;
41635;SDS011;27623;51.966;4.602;2022-11-20T00:44:52;17.13;;;8.50;;
41635;SDS011;27623;51.966;4.602;2022-11-20T00:47:19;15.05;;;8.65;;
41635;SDS011;27623;51.966;4.602;2022-11-20T00:49:44;18.05;;;8.35;;
41635;SDS011;27623;51.966;4.602;2022-11-20T00:52:12;17.08;;;8.82;;
41635;SDS011;27623;51.966;4.602;2022-11-20T00:54:38;16.15;;;8.15;;
41635;SDS011;27623;51.966;4.602;2022-11-20T00:57:04;17.40;;;8.85;;
41635;SDS011;27623;51.966;4.602;2022-11-20T00:59:29;16.50;;;8.40;;
41635;SDS011;27623;51.966;4.602;2022-11-20T01:01:54;15.38;;;8.00;;
41635;SDS011;27623;51.966;4.602;2022-11-20T01:04:20;18.90;;;10.05;;
41635;SDS011;27623;51.966;4.602;2022-11-20T01:06:46;19.00;;;9.95;;
41635;SDS011;27623;51.966;4.602;2022-11-20T01:09:12;21.48;;;9.73;;
41635;SDS011;27623;51.966;4.602;2022-11-20T01:11:40;19.00;;;8.77;;
41635;SDS011;27623;51.966;4.602;2022-11-20T01:14:11;17.48;;;8.52;;
41635;SDS011;27623;51.966;4.602;2022-11-20T01:16:40;16.98;;;7.75;;
41635;SDS011;27623;51.966;4.602;2022-11-20T01:19:10;17.45;;;8.73;;
41635;SDS011;27623;51.966;4.602;2022-11-20T01:21:39;16.67;;;8.93;;
41635;SDS011;27623;51.966;4.602;2022-11-20T01:24:07;17.42;;;8.27;;
41635;SDS011;27623;51.966;4.602;2022-11-20T01:26:37;14.95;;;8.18;;
41635;SDS011;27623;51.966;4.602;2022-11-20T01:29:04;15.50;;;7.90;;
41635;SDS011;27623;51.966;4.602;2022-11-20T01:31:31;17.25;;;8.48;;
41635;SDS011;27623;51.966;4.602;2022-11-20T01:33:59;16.63;;;8.05;;
41635;SDS011;27623;51.966;4.602;2022-11-20T01:36:28;18.23;;;8.63;;
41635;SDS011;27623;51.966;4.602;2022-11-20T01:38:56;16.63;;;8.57;;
41635;SDS011;27623;51.966;4.602;2022-11-20T01:41:27;16.40;;;8.85;;
41635;SDS011;27623;51.966;4.602;2022-11-20T01:44:13;17.55;;;9.80;;
41635;SDS011;27623;51.966;4.602;2022-11-20T01:46:42;19.70;;;9.85;;
41635;SDS011;27623;51.966;4.602;2022-11-20T01:49:19;18.38;;;9.65;;
41635;SDS011;27623;51.966;4.602;2022-11-20T01:51:50;16.27;;;8.48;;
41635;SDS011;27623;51.966;4.602;2022-11-20T01:54:24;17.10;;;8.45;;
41635;SDS011;27623;51.966;4.602;2022-11-20T01:56:58;19.42;;;8.60;;
41635;SDS011;27623;51.966;4.602;2022-11-20T01:59:26;18.42;;;8.27;;
41635;SDS011;27623;51.966;4.602;2022-11-20T02:01:54;15.00;;;7.72;;
41635;SDS011;27623;51.966;4.602;2022-11-20T02:04:20;16.95;;;8.10;;
41635;SDS011;27623;51.966;4.602;2022-11-20T02:06:52;18.17;;;8.63;;
41635;SDS011;27623;51.966;4.602;2022-11-20T02:09:24;18.98;;;9.48;;
41635;SDS011;27623;51.966;4.602;2022-11-20T02:11:49;16.77;;;8.02;;
41635;SDS011;27623;51.966;4.602;2022-11-20T02:14:14;19.10;;;9.23;;
41635;SDS011;27623;51.966;4.602;2022-11-20T02:16:43;14.68;;;7.78;;
41635;SDS011;27623;51.966;4.602;2022-11-20T02:19:30;18.30;;;9.38;;
41635;SDS011;27623;51.966;4.602;2022-11-20T02:22:01;17.02;;;8.27;;
41635;SDS011;27623;51.966;4.602;2022-11-20T02:24:32;18.25;;;8.50;;
41635;SDS011;27623;51.966;4.602;2022-11-20T02:26:59;15.18;;;7.10;;
41635;SDS011;27623;51.966;4.602;2022-11-20T02:32:06;15.10;;;7.80;;
41635;SDS011;27623;51.966;4.602;2022-11-20T02:34:46;16.00;;;8.15;;
41635;SDS011;27623;51.966;4.602;2022-11-20T02:37:11;14.45;;;7.22;;
41635;SDS011;27623;51.966;4.602;2022-11-20T02:39:37;16.45;;;8.57;;
41635;SDS011;27623;51.966;4.602;2022-11-20T02:42:02;19.23;;;9.52;;
41635;SDS011;27623;51.966;4.602;2022-11-20T02:44:28;19.58;;;9.02;;
41635;SDS011;27623;51.966;4.602;2022-11-20T02:46:56;18.98;;;8.40;;
41635;SDS011;27623;51.966;4.602;2022-11-20T02:49:23;15.05;;;7.88;;
41635;SDS011;27623;51.966;4.602;2022-11-20T02:51:48;17.13;;;9.10;;
41635;SDS011;27623;51.966;4.602;2022-11-20T02:54:13;23.63;;;9.23;;
41635;SDS011;27623;51.966;4.602;2022-11-20T02:56:39;18.67;;;9.32;;
41635;SDS011;27623;51.966;4.602;2022-11-20T02:59:05;20.13;;;10.25;;
41635;SDS011;27623;51.966;4.602;2022-11-20T03:01:30;20.35;;;9.77;;
41635;SDS011;27623;51.966;4.602;2022-11-20T03:03:56;20.95;;;9.82;;
41635;SDS011;27623;51.966;4.602;2022-11-20T03:06:21;25.40;;;11.57;;
41635;SDS011;27623;51.966;4.602;2022-11-20T03:08:47;20.83;;;10.40;;
41635;SDS011;27623;51.966;4.602;2022-11-20T03:11:14;18.10;;;8.93;;
41635;SDS011;27623;51.966;4.602;2022-11-20T03:13:39;20.13;;;9.25;;
41635;SDS011;27623;51.966;4.602;2022-11-20T03:16:26;18.27;;;9.00;;
41635;SDS011;27623;51.966;4.602;2022-11-20T03:18:51;20.90;;;9.70;;
41635;SDS011;27623;51.966;4.602;2022-11-20T03:21:17;26.50;;;12.02;;
41635;SDS011;27623;51.966;4.602;2022-11-20T03:23:45;21.15;;;10.27;;
41635;SDS011;27623;51.966;4.602;2022-11-20T03:26:12;22.77;;;11.38;;
41635;SDS011;27623;51.966;4.602;2022-11-20T03:28:40;20.80;;;9.85;;
41635;SDS011;27623;51.966;4.602;2022-11-20T03:31:11;21.23;;;10.40;;
41635;SDS011;27623;51.966;4.602;2022-11-20T03:33:39;20.73;;;10.65;;
41635;SDS011;27623;51.966;4.602;2022-11-20T03:36:06;21.15;;;10.50;;
41635;SDS011;27623;51.966;4.602;2022-11-20T03:38:35;23.98;;;11.00;;
41635;SDS011;27623;51.966;4.602;2022-11-20T03:41:02;27.08;;;12.23;;
41635;SDS011;27623;51.966;4.602;2022-11-20T03:43:30;25.08;;;11.63;;
41635;SDS011;27623;51.966;4.602;2022-11-20T03:45:56;32.67;;;15.88;;
41635;SDS011;27623;51.966;4.602;2022-11-20T03:48:22;42.28;;;16.67;;
41635;SDS011;27623;51.966;4.602;2022-11-20T03:50:48;37.45;;;17.45;;
41635;SDS011;27623;51.966;4.602;2022-11-20T03:53:14;40.00;;;18.42;;
41635;SDS011;27623;51.966;4.602;2022-11-20T03:55:40;34.15;;;16.25;;
41635;SDS011;27623;51.966;4.602;2022-11-20T03:58:09;34.53;;;16.30;;
41635;SDS011;27623;51.966;4.602;2022-11-20T04:00:35;30.05;;;13.98;;
41635;SDS011;27623;51.966;4.602;2022-11-20T04:03:01;26.67;;;13.18;;
41635;SDS011;27623;51.966;4.602;2022-11-20T04:05:27;23.45;;;9.52;;
41635;SDS011;27623;51.966;4.602;2022-11-20T04:07:53;19.15;;;10.32;;
41635;SDS011;27623;51.966;4.602;2022-11-20T04:10:19;19.83;;;9.80;;
41635;SDS011;27623;51.966;4.602;2022-11-20T04:12:44;22.17;;;10.60;;
41635;SDS011;27623;51.966;4.602;2022-11-20T04:15:10;24.60;;;11.60;;
41635;SDS011;27623;51.966;4.602;2022-11-20T04:17:35;23.13;;;12.38;;
41635;SDS011;27623;51.966;4.602;2022-11-20T04:20:00;22.50;;;10.90;;
41635;SDS011;27623;51.966;4.602;2022-11-20T04:22:27;20.77;;;10.65;;
41635;SDS011;27623;51.966;4.602;2022-11-20T04:24:54;19.20;;;9.77;;
41635;SDS011;27623;51.966;4.602;2022-11-20T04:27:20;22.48;;;10.02;;
41635;SDS011;27623;51.966;4.602;2022-11-20T04:29:45;18.00;;;8.73;;
41635;SDS011;27623;51.966;4.602;2022-11-20T04:32:11;17.23;;;8.68;;
41635;SDS011;27623;51.966;4.602;2022-11-20T04:34:39;20.20;;;9.35;;
41635;SDS011;27623;51.966;4.602;2022-11-20T04:37:05;22.25;;;10.85;;
41635;SDS011;27623;51.966;4.602;2022-11-20T04:39:31;16.48;;;8.38;;
41635;SDS011;27623;51.966;4.602;2022-11-20T04:41:57;17.60;;;8.15;;
41635;SDS011;27623;51.966;4.602;2022-11-20T04:44:41;16.15;;;8.18;;
41635;SDS011;27623;51.966;4.602;2022-11-20T04:47:06;15.25;;;6.97;;
41635;SDS011;27623;51.966;4.602;2022-11-20T04:49:32;19.05;;;9.10;;
41635;SDS011;27623;51.966;4.602;2022-11-20T04:51:58;19.60;;;8.32;;
41635;SDS011;27623;51.966;4.602;2022-11-20T04:54:24;18.08;;;8.55;;
41635;SDS011;27623;51.966;4.602;2022-11-20T04:56:49;17.08;;;9.07;;
41635;SDS011;27623;51.966;4.602;2022-11-20T04:59:17;16.88;;;8.40;;
41635;SDS011;27623;51.966;4.602;2022-11-20T05:01:43;16.48;;;8.38;;
41635;SDS011;27623;51.966;4.602;2022-11-20T05:04:08;19.00;;;9.10;;
41635;SDS011;27623;51.966;4.602;2022-11-20T05:06:34;17.92;;;8.90;;
41635;SDS011;27623;51.966;4.602;2022-11-20T05:08:59;16.92;;;8.25;;
41635;SDS011;27623;51.966;4.602;2022-11-20T05:11:25;18.98;;;9.18;;
41635;SDS011;27623;51.966;4.602;2022-11-20T05:13:54;15.90;;;9.18;;
41635;SDS011;27623;51.966;4.602;2022-11-20T05:16:23;18.05;;;8.68;;
41635;SDS011;27623;51.966;4.602;2022-11-20T05:18:49;16.95;;;8.80;;
41635;SDS011;27623;51.966;4.602;2022-11-20T05:21:16;18.85;;;8.90;;
41635;SDS011;27623;51.966;4.602;2022-11-20T05:23:42;17.25;;;8.60;;
41635;SDS011;27623;51.966;4.602;2022-11-20T05:26:12;17.05;;;8.55;;
41635;SDS011;27623;51.966;4.602;2022-11-20T05:28:40;16.67;;;8.25;;
41635;SDS011;27623;51.966;4.602;2022-11-20T05:31:12;17.40;;;8.48;;
41635;SDS011;27623;51.966;4.602;2022-11-20T05:33:40;16.75;;;8.27;;
41635;SDS011;27623;51.966;4.602;2022-11-20T05:36:07;21.73;;;10.02;;
41635;SDS011;27623;51.966;4.602;2022-11-20T05:38:33;20.02;;;8.50;;
41635;SDS011;27623;51.966;4.602;2022-11-20T05:43:31;16.48;;;7.97;;
41635;SDS011;27623;51.966;4.602;2022-11-20T05:46:01;16.10;;;7.75;;
41635;SDS011;27623;51.966;4.602;2022-11-20T05:48:26;18.02;;;9.05;;
41635;SDS011;27623;51.966;4.602;2022-11-20T05:50:52;18.67;;;8.77;;
41635;SDS011;27623;51.966;4.602;2022-11-20T05:53:17;17.75;;;8.55;;
41635;SDS011;27623;51.966;4.602;2022-11-20T05:55:43;17.95;;;8.43;;
41635;SDS011;27623;51.966;4.602;2022-11-20T05:58:09;16.15;;;8.23;;
41635;SDS011;27623;51.966;4.602;2022-11-20T06:00:34;16.83;;;8.23;;
41635;SDS011;27623;51.966;4.602;2022-11-20T06:03:00;16.35;;;8.80;;
41635;SDS011;27623;51.966;4.602;2022-11-20T06:05:25;17.48;;;9.00;;
41635;SDS011;27623;51.966;4.602;2022-11-20T06:07:51;19.10;;;8.07;;
41635;SDS011;27623;51.966;4.602;2022-11-20T06:10:17;16.42;;;8.82;;
41635;SDS011;27623;51.966;4.602;2022-11-20T06:12:43;21.40;;;8.70;;
41635;SDS011;27623;51.966;4.602;2022-11-20T06:15:08;18.42;;;8.50;;
41635;SDS011;27623;51.966;4.602;2022-11-20T06:17:34;18.88;;;9.00;;
41635;SDS011;27623;51.966;4.602;2022-11-20T06:20:01;18.25;;;9.23;;
41635;SDS011;27623;51.966;4.602;2022-11-20T06:22:26;20.30;;;8.60;;
41635;SDS011;27623;51.966;4.602;2022-11-20T06:24:51;19.58;;;9.55;;
41635;SDS011;27623;51.966;4.602;2022-11-20T06:27:17;17.40;;;9.18;;
41635;SDS011;27623;51.966;4.602;2022-11-20T06:29:43;22.23;;;9.77;;
41635;SDS011;27623;51.966;4.602;2022-11-20T06:32:08;18.23;;;9.73;;
41635;SDS011;27623;51.966;4.602;2022-11-20T06:34:34;19.05;;;10.00;;
41635;SDS011;27623;51.966;4.602;2022-11-20T06:37:00;18.30;;;10.15;;
41635;SDS011;27623;51.966;4.602;2022-11-20T06:39:26;19.88;;;10.25;;
41635;SDS011;27623;51.966;4.602;2022-11-20T06:41:52;19.10;;;9.20;;
41635;SDS011;27623;51.966;4.602;2022-11-20T06:44:18;17.08;;;9.30;;
41635;SDS011;27623;51.966;4.602;2022-11-20T06:46:44;17.80;;;9.15;;
41635;SDS011;27623;51.966;4.602;2022-11-20T06:49:10;19.33;;;10.50;;
41635;SDS011;27623;51.966;4.602;2022-11-20T06:51:35;18.55;;;8.90;;
41635;SDS011;27623;51.966;4.602;2022-11-20T06:54:02;18.05;;;9.27;;
41635;SDS011;27623;51.966;4.602;2022-11-20T06:56:28;18.13;;;9.23;;
41635;SDS011;27623;51.966;4.602;2022-11-20T06:58:54;19.33;;;9.95;;
41635;SDS011;27623;51.966;4.602;2022-11-20T07:01:19;18.17;;;9.43;;
41635;SDS011;27623;51.966;4.602;2022-11-20T07:03:45;19.95;;;9.85;;
41635;SDS011;27623;51.966;4.602;2022-11-20T07:06:13;20.75;;;9.10;;
41635;SDS011;27623;51.966;4.602;2022-11-20T07:08:38;17.58;;;8.80;;
41635;SDS011;27623;51.966;4.602;2022-11-20T07:11:04;17.67;;;9.05;;
41635;SDS011;27623;51.966;4.602;2022-11-20T07:13:32;19.25;;;9.10;;
41635;SDS011;27623;51.966;4.602;2022-11-20T07:16:01;23.05;;;9.23;;
41635;SDS011;27623;51.966;4.602;2022-11-20T07:18:29;18.23;;;8.77;;
41635;SDS011;27623;51.966;4.602;2022-11-20T07:20:54;21.58;;;9.05;;
41635;SDS011;27623;51.966;4.602;2022-11-20T07:23:19;20.98;;;9.50;;
41635;SDS011;27623;51.966;4.602;2022-11-20T07:25:45;16.90;;;8.70;;
41635;SDS011;27623;51.966;4.602;2022-11-20T07:28:10;18.42;;;8.77;;
41635;SDS011;27623;51.966;4.602;2022-11-20T07:30:36;17.83;;;9.55;;
41635;SDS011;27623;51.966;4.602;2022-11-20T07:33:01;19.83;;;9.10;;
41635;SDS011;27623;51.966;4.602;2022-11-20T07:35:27;22.08;;;10.32;;
41635;SDS011;27623;51.966;4.602;2022-11-20T07:37:53;19.73;;;10.05;;
41635;SDS011;27623;51.966;4.602;2022-11-20T07:40:18;23.65;;;10.38;;
41635;SDS011;27623;51.966;4.602;2022-11-20T07:42:54;20.25;;;9.80;;
41635;SDS011;27623;51.966;4.602;2022-11-20T07:45:21;22.70;;;10.57;;
41635;SDS011;27623;51.966;4.602;2022-11-20T07:47:47;23.17;;;11.25;;
41635;SDS011;27623;51.966;4.602;2022-11-20T07:50:13;20.65;;;10.40;;
41635;SDS011;27623;51.966;4.602;2022-11-20T07:52:39;19.45;;;9.90;;
41635;SDS011;27623;51.966;4.602;2022-11-20T07:55:05;21.60;;;10.68;;
41635;SDS011;27623;51.966;4.602;2022-11-20T07:57:31;23.42;;;11.40;;
41635;SDS011;27623;51.966;4.602;2022-11-20T07:59:57;24.85;;;11.27;;
41635;SDS011;27623;51.966;4.602;2022-11-20T08:02:22;23.65;;;11.27;;
41635;SDS011;27623;51.966;4.602;2022-11-20T08:04:51;19.83;;;10.45;;
41635;SDS011;27623;51.966;4.602;2022-11-20T08:07:16;22.67;;;11.32;;
41635;SDS011;27623;51.966;4.602;2022-11-20T08:09:42;20.92;;;10.70;;
41635;SDS011;27623;51.966;4.602;2022-11-20T08:12:08;21.50;;;10.93;;
41635;SDS011;27623;51.966;4.602;2022-11-20T08:15:00;21.98;;;11.20;;
41635;SDS011;27623;51.966;4.602;2022-11-20T08:17:26;25.52;;;12.02;;
41635;SDS011;27623;51.966;4.602;2022-11-20T08:19:51;29.42;;;14.20;;
41635;SDS011;27623;51.966;4.602;2022-11-20T08:22:17;25.92;;;13.13;;
41635;SDS011;27623;51.966;4.602;2022-11-20T08:24:42;25.05;;;12.63;;
41635;SDS011;27623;51.966;4.602;2022-11-20T08:27:08;25.67;;;10.85;;
41635;SDS011;27623;51.966;4.602;2022-11-20T08:29:33;22.17;;;11.38;;
41635;SDS011;27623;51.966;4.602;2022-11-20T08:31:58;21.70;;;11.75;;
41635;SDS011;27623;51.966;4.602;2022-11-20T08:34:24;25.50;;;11.63;;
41635;SDS011;27623;51.966;4.602;2022-11-20T08:36:52;22.60;;;11.15;;
41635;SDS011;27623;51.966;4.602;2022-11-20T08:39:17;23.23;;;12.00;;
41635;SDS011;27623;51.966;4.602;2022-11-20T08:41:45;23.75;;;11.75;;
41635;SDS011;27623;51.966;4.602;2022-11-20T08:44:10;23.00;;;11.77;;
41635;SDS011;27623;51.966;4.602;2022-11-20T08:46:37;22.35;;;10.98;;
41635;SDS011;27623;51.966;4.602;2022-11-20T08:49:04;24.83;;;11.43;;
41635;SDS011;27623;51.966;4.602;2022-11-20T08:51:31;22.48;;;10.60;;
41635;SDS011;27623;51.966;4.602;2022-11-20T08:53:57;22.75;;;10.32;;
41635;SDS011;27623;51.966;4.602;2022-11-20T08:56:22;24.50;;;11.02;;
41635;SDS011;27623;51.966;4.602;2022-11-20T08:58:49;22.15;;;11.30;;
41635;SDS011;27623;51.966;4.602;2022-11-20T09:01:16;19.48;;;9.88;;
41635;SDS011;27623;51.966;4.602;2022-11-20T09:03:41;21.55;;;9.90;;
41635;SDS011;27623;51.966;4.602;2022-11-20T09:06:07;24.05;;;11.48;;
41635;SDS011;27623;51.966;4.602;2022-11-20T09:08:33;24.98;;;11.48;;
41635;SDS011;27623;51.966;4.602;2022-11-20T09:10:59;23.42;;;11.20;;
41635;SDS011;27623;51.966;4.602;2022-11-20T09:13:28;21.42;;;11.07;;
41635;SDS011;27623;51.966;4.602;2022-11-20T09:15:58;23.25;;;11.00;;
41635;SDS011;27623;51.966;4.602;2022-11-20T09:18:26;23.02;;;11.10;;
41635;SDS011;27623;51.966;4.602;2022-11-20T09:20:56;23.55;;;11.43;;
41635;SDS011;27623;51.966;4.602;2022-11-20T09:23:23;25.40;;;12.32;;
41635;SDS011;27623;51.966;4.602;2022-11-20T09:25:49;21.35;;;11.82;;
41635;SDS011;27623;51.966;4.602;2022-11-20T09:28:14;26.02;;;12.48;;
41635;SDS011;27623;51.966;4.602;2022-11-20T09:30:41;23.02;;;11.60;;
41635;SDS011;27623;51.966;4.602;2022-11-20T09:33:06;23.25;;;12.48;;
41635;SDS011;27623;51.966;4.602;2022-11-20T09:35:33;23.55;;;11.85;;
41635;SDS011;27623;51.966;4.602;2022-11-20T09:38:03;22.52;;;12.65;;
41635;SDS011;27623;51.966;4.602;2022-11-20T09:40:32;28.27;;;12.95;;
41635;SDS011;27623;51.966;4.602;2022-11-20T09:43:02;25.85;;;12.82;;
41635;SDS011;27623;51.966;4.602;2022-11-20T09:46:03;33.00;;;15.60;;
41635;SDS011;27623;51.966;4.602;2022-11-20T09:48:40;28.63;;;13.40;;
41635;SDS011;27623;51.966;4.602;2022-11-20T09:51:33;22.70;;;12.70;;
41635;SDS011;27623;51.966;4.602;2022-11-20T09:56:45;27.52;;;12.48;;
41635;SDS011;27623;51.966;4.602;2022-11-20T09:59:23;30.45;;;15.07;;
41635;SDS011;27623;51.966;4.602;2022-11-20T10:01:57;31.38;;;16.27;;
41635;SDS011;27623;51.966;4.602;2022-11-20T10:04:26;27.42;;;14.45;;
41635;SDS011;27623;51.966;4.602;2022-11-20T10:09:51;28.80;;;13.90;;
41635;SDS011;27623;51.966;4.602;2022-11-20T10:15:31;26.27;;;12.75;;
41635;SDS011;27623;51.966;4.602;2022-11-20T10:18:17;31.42;;;13.25;;
41635;SDS011;27623;51.966;4.602;2022-11-20T10:21:23;26.27;;;12.80;;
41635;SDS011;27623;51.966;4.602;2022-11-20T10:24:06;26.52;;;13.48;;
41635;SDS011;27623;51.966;4.602;2022-11-20T10:26:44;26.45;;;13.88;;
41635;SDS011;27623;51.966;4.602;2022-11-20T10:29:34;26.75;;;13.00;;
41635;SDS011;27623;51.966;4.602;2022-11-20T10:32:07;28.05;;;13.20;;
41635;SDS011;27623;51.966;4.602;2022-11-20T10:37:20;32.75;;;14.30;;
41635;SDS011;27623;51.966;4.602;2022-11-20T10:43:01;34.20;;;15.40;;
41635;SDS011;27623;51.966;4.602;2022-11-20T10:45:35;40.53;;;18.70;;
41635;SDS011;27623;51.966;4.602;2022-11-20T10:48:26;37.22;;;17.55;;
41635;SDS011;27623;51.966;4.602;2022-11-20T10:56:14;53.05;;;21.73;;
41635;SDS011;27623;51.966;4.602;2022-11-20T10:58:52;44.85;;;19.63;;
41635;SDS011;27623;51.966;4.602;2022-11-20T11:01:27;36.20;;;18.02;;
41635;SDS011;27623;51.966;4.602;2022-11-20T11:03:53;50.80;;;19.48;;
41635;SDS011;27623;51.966;4.602;2022-11-20T11:08:48;35.05;;;16.83;;
41635;SDS011;27623;51.966;4.602;2022-11-20T11:13:45;35.47;;;17.20;;
41635;SDS011;27623;51.966;4.602;2022-11-20T11:16:26;37.85;;;17.20;;
41635;SDS011;27623;51.966;4.602;2022-11-20T11:19:03;35.33;;;16.15;;
41635;SDS011;27623;51.966;4.602;2022-11-20T11:21:32;34.85;;;15.60;;
41635;SDS011;27623;51.966;4.602;2022-11-20T11:23:59;32.53;;;15.25;;
41635;SDS011;27623;51.966;4.602;2022-11-20T11:26:26;33.92;;;16.23;;
41635;SDS011;27623;51.966;4.602;2022-11-20T11:28:56;33.63;;;15.35;;
41635;SDS011;27623;51.966;4.602;2022-11-20T11:31:27;37.53;;;16.38;;
41635;SDS011;27623;51.966;4.602;2022-11-20T11:34:06;33.63;;;16.02;;
41635;SDS011;27623;51.966;4.602;2022-11-20T11:36:36;37.13;;;17.67;;
41635;SDS011;27623;51.966;4.602;2022-11-20T11:39:03;37.03;;;17.88;;
41635;SDS011;27623;51.966;4.602;2022-11-20T11:41:32;33.67;;;16.35;;
41635;SDS011;27623;51.966;4.602;2022-11-20T11:52:38;35.60;;;17.38;;
41635;SDS011;27623;51.966;4.602;2022-11-20T11:55:07;36.50;;;17.33;;
41635;SDS011;27623;51.966;4.602;2022-11-20T12:00:13;42.53;;;17.90;;
41635;SDS011;27623;51.966;4.602;2022-11-20T12:13:21;44.38;;;18.25;;
41635;SDS011;27623;51.966;4.602;2022-11-20T12:15:51;43.72;;;19.05;;
41635;SDS011;27623;51.966;4.602;2022-11-20T12:18:18;43.38;;;19.08;;
41635;SDS011;27623;51.966;4.602;2022-11-20T12:26:16;45.05;;;18.08;;
41635;SDS011;27623;51.966;4.602;2022-11-20T12:39:48;42.28;;;18.58;;
41635;SDS011;27623;51.966;4.602;2022-11-20T12:48:12;39.92;;;17.88;;
41635;SDS011;27623;51.966;4.602;2022-11-20T12:51:21;46.13;;;17.70;;
41635;SDS011;27623;51.966;4.602;2022-11-20T12:59:21;50.40;;;20.80;;
41635;SDS011;27623;51.966;4.602;2022-11-20T13:02:01;42.58;;;18.80;;
41635;SDS011;27623;51.966;4.602;2022-11-20T13:07:25;52.72;;;20.33;;
41635;SDS011;27623;51.966;4.602;2022-11-20T13:09:53;47.60;;;20.80;;
41635;SDS011;27623;51.966;4.602;2022-11-20T13:12:25;52.05;;;20.42;;
41635;SDS011;27623;51.966;4.602;2022-11-20T13:17:57;56.72;;;21.70;;
41635;SDS011;27623;51.966;4.602;2022-11-20T13:20:25;69.38;;;27.33;;
41635;SDS011;27623;51.966;4.602;2022-11-20T13:22:52;73.28;;;28.10;;
41635;SDS011;27623;51.966;4.602;2022-11-20T13:25:35;67.80;;;24.42;;
41635;SDS011;27623;51.966;4.602;2022-11-20T13:28:26;76.38;;;27.63;;
41635;SDS011;27623;51.966;4.602;2022-11-20T13:30:54;72.65;;;25.77;;
41635;SDS011;27623;51.966;4.602;2022-11-20T13:35:59;47.38;;;19.98;;
41635;SDS011;27623;51.966;4.602;2022-11-20T13:38:40;50.85;;;21.02;;
41635;SDS011;27623;51.966;4.602;2022-11-20T13:41:22;48.70;;;19.42;;
41635;SDS011;27623;51.966;4.602;2022-11-20T13:46:37;51.03;;;20.38;;
41635;SDS011;27623;51.966;4.602;2022-11-20T13:49:06;54.92;;;21.08;;
41635;SDS011;27623;51.966;4.602;2022-11-20T13:51:42;56.85;;;21.23;;
41635;SDS011;27623;51.966;4.602;2022-11-20T14:02:16;62.35;;;22.50;;
41635;SDS011;27623;51.966;4.602;2022-11-20T14:04:45;61.92;;;22.02;;
41635;SDS011;27623;51.966;4.602;2022-11-20T14:07:14;62.38;;;22.92;;
41635;SDS011;27623;51.966;4.602;2022-11-20T14:09:48;52.55;;;22.48;;
41635;SDS011;27623;51.966;4.602;2022-11-20T14:12:17;62.38;;;22.65;;
41635;SDS011;27623;51.966;4.602;2022-11-20T14:14:50;58.97;;;22.67;;
41635;SDS011;27623;51.966;4.602;2022-11-20T14:17:18;54.47;;;22.38;;
41635;SDS011;27623;51.966;4.602;2022-11-20T14:19:45;62.17;;;23.58;;
41635;SDS011;27623;51.966;4.602;2022-11-20T14:22:23;58.50;;;24.17;;
41635;SDS011;27623;51.966;4.602;2022-11-20T14:25:03;55.65;;;22.65;;
41635;SDS011;27623;51.966;4.602;2022-11-20T14:27:32;60.78;;;23.35;;
41635;SDS011;27623;51.966;4.602;2022-11-20T14:30:05;57.03;;;23.38;;
41635;SDS011;27623;51.966;4.602;2022-11-20T14:32:37;59.30;;;23.80;;
41635;SDS011;27623;51.966;4.602;2022-11-20T14:35:06;66.40;;;22.10;;
41635;SDS011;27623;51.966;4.602;2022-11-20T14:37:36;63.50;;;25.08;;
41635;SDS011;27623;51.966;4.602;2022-11-20T14:40:05;59.03;;;24.08;;
41635;SDS011;27623;51.966;4.602;2022-11-20T14:42:47;67.55;;;23.23;;
41635;SDS011;27623;51.966;4.602;2022-11-20T14:45:13;64.22;;;23.85;;
41635;SDS011;27623;51.966;4.602;2022-11-20T14:47:39;69.35;;;25.05;;
41635;SDS011;27623;51.966;4.602;2022-11-20T14:50:12;69.72;;;25.23;;
41635;SDS011;27623;51.966;4.602;2022-11-20T14:52:55;61.70;;;24.25;;
41635;SDS011;27623;51.966;4.602;2022-11-20T14:55:34;66.35;;;24.35;;
41635;SDS011;27623;51.966;4.602;2022-11-20T14:58:05;63.65;;;23.27;;
41635;SDS011;27623;51.966;4.602;2022-11-20T15:00:52;65.38;;;23.85;;
41635;SDS011;27623;51.966;4.602;2022-11-20T15:03:19;64.20;;;23.88;;
41635;SDS011;27623;51.966;4.602;2022-11-20T15:05:46;62.95;;;24.35;;
41635;SDS011;27623;51.966;4.602;2022-11-20T15:08:13;61.20;;;24.08;;
41635;SDS011;27623;51.966;4.602;2022-11-20T15:10:45;58.97;;;23.95;;
41635;SDS011;27623;51.966;4.602;2022-11-20T15:13:15;66.35;;;25.67;;
41635;SDS011;27623;51.966;4.602;2022-11-20T15:15:51;63.92;;;23.23;;
41635;SDS011;27623;51.966;4.602;2022-11-20T15:18:21;63.92;;;26.20;;
41635;SDS011;27623;51.966;4.602;2022-11-20T15:20:49;67.63;;;25.75;;
41635;SDS011;27623;51.966;4.602;2022-11-20T15:23:16;61.75;;;24.50;;
41635;SDS011;27623;51.966;4.602;2022-11-20T15:25:43;81.03;;;30.38;;
41635;SDS011;27623;51.966;4.602;2022-11-20T15:28:20;57.83;;;23.73;;
41635;SDS011;27623;51.966;4.602;2022-11-20T15:30:48;55.55;;;22.85;;
41635;SDS011;27623;51.966;4.602;2022-11-20T15:33:15;56.80;;;23.08;;
41635;SDS011;27623;51.966;4.602;2022-11-20T15:35:41;56.55;;;22.95;;
41635;SDS011;27623;51.966;4.602;2022-11-20T15:38:06;59.13;;;24.08;;
41635;SDS011;27623;51.966;4.602;2022-11-20T15:40:33;55.08;;;22.70;;
41635;SDS011;27623;51.966;4.602;2022-11-20T15:42:58;66.60;;;25.33;;
41635;SDS011;27623;51.966;4.602;2022-11-20T15:45:44;60.83;;;23.65;;
41635;SDS011;27623;51.966;4.602;2022-11-20T15:48:19;55.65;;;22.70;;
41635;SDS011;27623;51.966;4.602;2022-11-20T15:50:49;58.70;;;23.02;;
41635;SDS011;27623;51.966;4.602;2022-11-20T15:53:19;58.35;;;22.20;;
41635;SDS011;27623;51.966;4.602;2022-11-20T15:55:44;65.43;;;24.50;;
41635;SDS011;27623;51.966;4.602;2022-11-20T15:58:10;64.75;;;25.30;;
41635;SDS011;27623;51.966;4.602;2022-11-20T16:00:35;53.63;;;21.98;;
41635;SDS011;27623;51.966;4.602;2022-11-20T16:03:00;61.70;;;24.55;;
41635;SDS011;27623;51.966;4.602;2022-11-20T16:05:29;75.32;;;25.95;;
41635;SDS011;27623;51.966;4.602;2022-11-20T16:07:54;67.72;;;24.88;;
41635;SDS011;27623;51.966;4.602;2022-11-20T16:10:20;79.32;;;29.33;;
41635;SDS011;27623;51.966;4.602;2022-11-20T16:12:46;66.82;;;25.08;;
41635;SDS011;27623;51.966;4.602;2022-11-20T16:15:30;62.28;;;23.73;;